createdAt,value
2022-11-29T00:01:07.147Z,-5.77
2022-11-29T00:03:34.631Z,-5.74
2022-11-29T00:06:09.139Z,-5.70
2022-11-29T00:08:36.800Z,-5.79
2022-11-29T00:11:38.938Z,-5.75
2022-11-29T00:14:07.589Z,-5.81
2022-11-29T00:16:34.592Z,-5.72
2022-11-29T00:19:01.863Z,-5.75
2022-11-29T00:21:29.049Z,-5.76
2022-11-29T00:23:55.754Z,-5.80
2022-11-29T00:26:22.515Z,-5.85
2022-11-29T00:28:49.232Z,-5.86
2022-11-29T00:31:15.990Z,-5.74
2022-11-29T00:33:42.813Z,-5.82
2022-11-29T00:36:10.293Z,-5.76
2022-11-29T00:38:38.230Z,-5.82
2022-11-29T00:41:05.051Z,-5.84
2022-11-29T00:43:31.859Z,-5.88
2022-11-29T00:45:58.550Z,-5.76
2022-11-29T00:48:25.635Z,-5.81
2022-11-29T00:50:52.284Z,-5.76
2022-11-29T00:53:19.033Z,-5.86
2022-11-29T00:55:50.972Z,-5.84
2022-11-29T00:58:18.230Z,-5.93
2022-11-29T01:00:45.012Z,-5.99
2022-11-29T01:03:11.859Z,-5.90
2022-11-29T01:05:38.574Z,-5.98
2022-11-29T01:08:05.557Z,-5.83
2022-11-29T01:10:32.477Z,-5.92
2022-11-29T01:12:59.213Z,-6.00
2022-11-29T01:15:25.910Z,-5.87
2022-11-29T01:17:53.536Z,-5.85
2022-11-29T01:20:20.491Z,-5.91
2022-11-29T01:22:47.220Z,-5.92
2022-11-29T01:25:14.232Z,-5.86
2022-11-29T01:27:41.914Z,-5.98
2022-11-29T01:30:10.436Z,-5.99
2022-11-29T01:32:37.545Z,-5.96
2022-11-29T01:35:05.989Z,-6.00
2022-11-29T01:37:32.964Z,-5.85
2022-11-29T01:39:59.599Z,-5.93
2022-11-29T01:42:26.353Z,-5.92
2022-11-29T01:45:26.273Z,-5.92
2022-11-29T01:47:56.968Z,-5.94
2022-11-29T01:50:24.030Z,-5.97
2022-11-29T01:52:51.044Z,-6.03
2022-11-29T01:55:18.883Z,-6.07
2022-11-29T01:57:45.811Z,-6.13
2022-11-29T02:00:16.205Z,-6.14
2022-11-29T02:02:47.203Z,-6.23
2022-11-29T02:05:15.455Z,-6.17
2022-11-29T02:07:45.872Z,-6.21
2022-11-29T02:10:14.183Z,-6.22
2022-11-29T02:12:59.555Z,-6.35
2022-11-29T02:15:46.311Z,-6.21
2022-11-29T02:18:41.750Z,-6.19
2022-11-29T02:21:11.287Z,-6.31
2022-11-29T02:24:00.803Z,-6.07
2022-11-29T02:26:46.143Z,-6.15
2022-11-29T02:29:31.546Z,-6.25
2022-11-29T02:32:22.507Z,-6.21
2022-11-29T02:35:23.540Z,-6.27
2022-11-29T02:38:11.408Z,-6.27
2022-11-29T02:40:41.155Z,-6.45
2022-11-29T02:43:35.423Z,-6.57
2022-11-29T02:46:08.186Z,-6.39
2022-11-29T02:48:46.783Z,-6.35
2022-11-29T02:51:35.867Z,-6.32
2022-11-29T02:54:02.451Z,-6.43
2022-11-29T02:56:56.817Z,-6.38
2022-11-29T02:59:32.555Z,-6.47
2022-11-29T03:02:29.280Z,-6.44
2022-11-29T03:04:55.922Z,-6.53
2022-11-29T03:07:45.334Z,-6.42
2022-11-29T03:10:30.720Z,-6.60
2022-11-29T03:13:00.005Z,-6.83
2022-11-29T03:15:42.718Z,-6.58
2022-11-29T03:18:51.069Z,-6.56
2022-11-29T03:22:10.054Z,-6.62
2022-11-29T03:24:49.401Z,-6.61
2022-11-29T03:27:43.695Z,-6.65
2022-11-29T03:30:13.991Z,-6.56
2022-11-29T03:32:41.062Z,-6.47
2022-11-29T03:35:18.806Z,-6.61
2022-11-29T03:38:07.376Z,-6.82
2022-11-29T03:40:40.428Z,-6.69
2022-11-29T03:43:13.648Z,-6.78
2022-11-29T03:45:50.969Z,-6.65
2022-11-29T03:48:48.239Z,-6.74
2022-11-29T03:51:28.033Z,-6.76
2022-11-29T03:54:01.957Z,-6.83
2022-11-29T03:56:37.067Z,-6.88
2022-11-29T03:59:09.431Z,-6.98
2022-11-29T04:02:00.934Z,-6.85
2022-11-29T04:05:01.979Z,-6.98
2022-11-29T04:07:54.301Z,-6.96
2022-11-29T04:10:39.135Z,-7.08
2022-11-29T04:13:30.687Z,-6.98
2022-11-29T04:16:35.061Z,-7.12
2022-11-29T04:19:27.796Z,-7.03
2022-11-29T04:22:19.002Z,-7.19
2022-11-29T04:24:48.311Z,-7.18
2022-11-29T04:27:31.007Z,-7.21
2022-11-29T04:30:06.048Z,-7.21
2022-11-29T04:33:19.094Z,-7.20
2022-11-29T04:36:16.818Z,-7.14
2022-11-29T04:39:22.230Z,-7.26
2022-11-29T04:42:16.092Z,-7.19
2022-11-29T04:45:00.778Z,-7.23
2022-11-29T04:47:49.748Z,-7.24
2022-11-29T04:50:42.244Z,-7.27
2022-11-29T04:53:20.695Z,-7.30
2022-11-29T04:56:06.620Z,-7.33
2022-11-29T04:59:15.916Z,-7.29
2022-11-29T05:02:14.156Z,-7.38
2022-11-29T05:05:14.739Z,-7.27
2022-11-29T05:07:44.080Z,-7.42
2022-11-29T05:10:38.073Z,-7.33
2022-11-29T05:13:19.123Z,-7.28
2022-11-29T05:16:12.915Z,-7.17
2022-11-29T05:19:05.607Z,-7.35
2022-11-29T05:21:51.074Z,-7.44
2022-11-29T05:24:44.721Z,-7.55
2022-11-29T05:27:29.844Z,-7.50
2022-11-29T05:30:14.331Z,-7.57
2022-11-29T05:33:05.675Z,-7.70
2022-11-29T05:35:55.207Z,-7.65
2022-11-29T05:38:30.680Z,-7.49
2022-11-29T05:41:06.442Z,-7.47
2022-11-29T05:43:38.990Z,-7.45
2022-11-29T05:46:49.623Z,-7.63
2022-11-29T05:49:21.886Z,-7.79
2022-11-29T05:52:09.867Z,-7.55
2022-11-29T05:54:46.346Z,-7.42
2022-11-29T05:57:34.735Z,-7.44
2022-11-29T06:00:03.239Z,-7.34
2022-11-29T06:02:57.387Z,-7.40
2022-11-29T06:05:46.918Z,-7.48
2022-11-29T06:08:20.856Z,-7.45
2022-11-29T06:11:14.237Z,-7.43
2022-11-29T06:13:51.059Z,-7.53
2022-11-29T06:17:14.870Z,-7.56
2022-11-29T06:20:11.031Z,-7.44
2022-11-29T06:23:12.955Z,-7.44
2022-11-29T06:25:43.344Z,-7.73
2022-11-29T06:28:18.350Z,-7.66
2022-11-29T06:31:00.709Z,-7.58
2022-11-29T06:34:11.593Z,-7.56
2022-11-29T06:36:48.604Z,-7.75
2022-11-29T06:39:15.424Z,-7.86
2022-11-29T06:41:42.399Z,-7.99
2022-11-29T06:44:11.226Z,-7.80
2022-11-29T06:47:16.284Z,-7.81
2022-11-29T06:50:01.205Z,-7.81
2022-11-29T06:52:37.379Z,-7.78
2022-11-29T06:55:10.045Z,-7.79
2022-11-29T06:57:48.890Z,-7.58
2022-11-29T07:00:22.689Z,-7.60
2022-11-29T07:03:34.514Z,-7.80
2022-11-29T07:06:08.742Z,-7.68
2022-11-29T07:08:35.699Z,-7.58
2022-11-29T07:11:02.571Z,-7.53
2022-11-29T07:13:29.667Z,-7.63
2022-11-29T07:16:03.801Z,-7.68
2022-11-29T07:18:38.423Z,-7.75
2022-11-29T07:21:17.122Z,-7.73
2022-11-29T07:24:08.769Z,-7.73
2022-11-29T07:26:59.942Z,-7.74
2022-11-29T07:29:35.424Z,-7.67
2022-11-29T07:32:08.003Z,-7.78
2022-11-29T07:34:46.658Z,-7.64
2022-11-29T07:37:31.326Z,-7.86
2022-11-29T07:40:13.232Z,-7.59
2022-11-29T07:42:48.952Z,-8.04
2022-11-29T07:45:31.901Z,-7.93
2022-11-29T07:47:59.459Z,-8.01
2022-11-29T07:50:27.531Z,-7.88
2022-11-29T07:52:55.523Z,-8.23
2022-11-29T07:55:25.623Z,-8.23
2022-11-29T07:57:52.952Z,-8.09
2022-11-29T08:00:20.433Z,-8.04
2022-11-29T08:02:48.145Z,-7.85
2022-11-29T08:05:14.927Z,-8.01
2022-11-29T08:07:42.011Z,-8.15
2022-11-29T08:10:11.697Z,-7.83
2022-11-29T08:12:45.900Z,-8.08
2022-11-29T08:15:12.982Z,-7.99
2022-11-29T08:17:39.908Z,-7.70
2022-11-29T08:20:08.002Z,-7.65
2022-11-29T08:22:34.879Z,-7.70
2022-11-29T08:25:01.690Z,-7.66
2022-11-29T08:27:28.590Z,-7.51
2022-11-29T08:29:55.255Z,-7.70
2022-11-29T08:32:22.003Z,-7.57
2022-11-29T08:34:48.811Z,-7.64
2022-11-29T08:37:15.511Z,-7.84
2022-11-29T08:39:43.605Z,-7.36
2022-11-29T08:42:10.294Z,-7.66
2022-11-29T08:44:36.986Z,-7.71
2022-11-29T08:47:22.055Z,-7.82
2022-11-29T08:50:03.927Z,-7.86
2022-11-29T08:52:53.371Z,-7.87
2022-11-29T08:55:22.084Z,-7.76
2022-11-29T08:57:50.608Z,-7.54
2022-11-29T09:00:17.923Z,-7.56
2022-11-29T09:02:44.705Z,-7.42
2022-11-29T09:05:12.110Z,-7.11
2022-11-29T09:07:39.054Z,-7.70
2022-11-29T09:10:08.406Z,-7.83
2022-11-29T09:12:36.502Z,-7.59
2022-11-29T09:15:09.639Z,-7.59
2022-11-29T09:17:36.714Z,-7.42
2022-11-29T09:20:04.688Z,-7.55
2022-11-29T09:22:31.588Z,-7.68
2022-11-29T09:24:58.244Z,-7.61
2022-11-29T09:27:25.010Z,-7.39
2022-11-29T09:29:51.678Z,-7.37
2022-11-29T09:32:18.414Z,-7.23
2022-11-29T09:34:45.387Z,-7.41
2022-11-29T09:37:12.438Z,-7.37
2022-11-29T09:39:40.322Z,-7.32
2022-11-29T09:42:42.525Z,-7.38
2022-11-29T09:45:24.547Z,-7.56
2022-11-29T09:48:33.193Z,-7.39
2022-11-29T09:51:17.973Z,-7.51
2022-11-29T09:53:50.365Z,-7.16
2022-11-29T09:56:26.177Z,-6.90
2022-11-29T09:59:25.960Z,-7.00
2022-11-29T10:02:04.682Z,-7.18
2022-11-29T10:04:40.431Z,-7.23
2022-11-29T10:07:21.928Z,-7.19
2022-11-29T10:10:08.569Z,-7.15
2022-11-29T10:12:48.530Z,-7.26
2022-11-29T10:15:32.045Z,-7.36
2022-11-29T10:18:33.893Z,-7.32
2022-11-29T10:21:10.957Z,-7.52
2022-11-29T10:23:46.170Z,-7.47
2022-11-29T10:26:13.717Z,-7.72
2022-11-29T10:28:45.187Z,-7.46
2022-11-29T10:31:32.249Z,-7.45
2022-11-29T10:34:02.424Z,-7.63
2022-11-29T10:36:39.473Z,-7.50
2022-11-29T10:39:14.785Z,-7.58
2022-11-29T10:41:41.765Z,-7.94
2022-11-29T10:44:14.269Z,-7.93
2022-11-29T10:46:41.339Z,-7.47
2022-11-29T10:49:14.991Z,-7.41
2022-11-29T10:51:42.023Z,-7.58
2022-11-29T10:54:27.517Z,-7.60
2022-11-29T10:56:57.377Z,-7.73
2022-11-29T10:59:26.657Z,-7.69
2022-11-29T11:01:54.328Z,-7.72
2022-11-29T11:04:45.338Z,-7.87
2022-11-29T11:07:26.034Z,-7.91
2022-11-29T11:09:55.951Z,-7.69
2022-11-29T11:12:26.223Z,-7.95
2022-11-29T11:15:28.251Z,-8.02
2022-11-29T11:18:00.821Z,-7.90
2022-11-29T11:20:33.976Z,-7.88
2022-11-29T11:23:28.556Z,-7.93
2022-11-29T11:26:07.670Z,-8.15
2022-11-29T11:29:01.969Z,-8.07
2022-11-29T11:31:40.627Z,-8.01
2022-11-29T11:34:36.684Z,-8.29
2022-11-29T11:37:33.451Z,-8.16
2022-11-29T11:40:18.613Z,-8.28
2022-11-29T11:42:45.501Z,-8.40
2022-11-29T11:45:12.612Z,-8.34
2022-11-29T11:47:47.994Z,-8.32
2022-11-29T11:50:25.172Z,-8.29
2022-11-29T11:52:54.442Z,-8.38
2022-11-29T11:55:21.051Z,-8.41
2022-11-29T11:58:03.376Z,-8.41
2022-11-29T12:01:03.925Z,-8.42
2022-11-29T12:03:47.232Z,-8.57
2022-11-29T12:06:57.900Z,-8.18
2022-11-29T12:09:57.440Z,-8.48
2022-11-29T12:12:25.823Z,-8.54
2022-11-29T12:15:03.129Z,-8.66
2022-11-29T12:17:44.263Z,-8.63
2022-11-29T12:20:45.606Z,-8.67
2022-11-29T12:23:12.224Z,-8.65
2022-11-29T12:26:41.185Z,-8.64
2022-11-29T12:29:04.181Z,-8.73
2022-11-29T12:31:37.191Z,-8.77
2022-11-29T12:34:28.817Z,-8.82
2022-11-29T12:37:33.816Z,-8.80
2022-11-29T12:40:25.528Z,-8.77
2022-11-29T12:43:19.765Z,-8.92
2022-11-29T12:46:11.230Z,-8.91
2022-11-29T12:49:08.803Z,-8.91
2022-11-29T12:51:50.857Z,-8.88
2022-11-29T12:54:32.642Z,-9.02
2022-11-29T12:57:14.965Z,-9.01
2022-11-29T12:59:51.041Z,-9.08
2022-11-29T13:02:42.451Z,-9.17
2022-11-29T13:05:33.946Z,-9.10
2022-11-29T13:08:20.924Z,-9.22
2022-11-29T13:11:19.825Z,-9.22
2022-11-29T13:14:34.562Z,-9.16
2022-11-29T13:17:05.582Z,-9.16
2022-11-29T13:19:53.908Z,-9.25
2022-11-29T13:22:30.029Z,-9.43
2022-11-29T13:25:01.790Z,-9.31
2022-11-29T13:27:41.036Z,-9.42
2022-11-29T13:30:08.233Z,-9.31
2022-11-29T13:32:40.048Z,-9.41
2022-11-29T13:35:19.598Z,-9.38
2022-11-29T13:37:55.328Z,-9.42
2022-11-29T13:40:38.007Z,-9.35
2022-11-29T13:43:41.535Z,-9.37
2022-11-29T13:46:36.685Z,-9.48
2022-11-29T13:49:03.430Z,-9.48
2022-11-29T13:51:39.229Z,-9.43
2022-11-29T13:54:30.779Z,-9.44
2022-11-29T13:57:08.925Z,-9.73
2022-11-29T13:59:45.904Z,-9.56
2022-11-29T14:02:29.409Z,-9.68
2022-11-29T14:04:56.642Z,-9.59
2022-11-29T14:07:23.548Z,-9.65
2022-11-29T14:09:59.209Z,-9.62
2022-11-29T14:12:28.981Z,-9.62
2022-11-29T14:15:21.024Z,-9.64
2022-11-29T14:17:55.844Z,-9.76
2022-11-29T14:20:22.432Z,-9.67
2022-11-29T14:23:04.426Z,-9.77
2022-11-29T14:25:54.955Z,-9.77
2022-11-29T14:28:21.633Z,-9.94
2022-11-29T14:30:49.861Z,-9.89
2022-11-29T14:33:39.419Z,-10.01
2022-11-29T14:36:41.417Z,-9.86
2022-11-29T14:39:27.333Z,-9.90
2022-11-29T14:42:24.146Z,-9.90
2022-11-29T14:44:58.392Z,-10.00
2022-11-29T14:47:47.535Z,-10.01
2022-11-29T14:50:38.671Z,-9.94
2022-11-29T14:53:07.545Z,-10.21
2022-11-29T14:55:35.629Z,-10.09
2022-11-29T14:58:03.772Z,-10.16
2022-11-29T15:00:42.299Z,-10.20
2022-11-29T15:03:39.106Z,-10.38
2022-11-29T15:06:14.695Z,-10.13
2022-11-29T15:08:52.171Z,-10.08
2022-11-29T15:11:56.114Z,-10.16
2022-11-29T15:14:34.927Z,-10.17
2022-11-29T15:17:28.663Z,-10.28
2022-11-29T15:19:55.468Z,-10.36
2022-11-29T15:22:27.775Z,-10.32
2022-11-29T15:25:02.283Z,-10.23
2022-11-29T15:27:29.306Z,-10.30
2022-11-29T15:29:56.261Z,-10.27
2022-11-29T15:32:31.040Z,-10.21
2022-11-29T15:34:58.590Z,-10.41
2022-11-29T15:37:42.783Z,-10.45
2022-11-29T15:40:12.985Z,-10.45
2022-11-29T15:43:13.802Z,-10.59
2022-11-29T15:45:40.592Z,-10.62
2022-11-29T15:48:24.109Z,-10.54
2022-11-29T15:51:09.105Z,-10.51
2022-11-29T15:53:42.289Z,-10.50
2022-11-29T15:56:26.036Z,-10.48
2022-11-29T15:58:59.769Z,-10.60
2022-11-29T16:01:26.723Z,-10.61
2022-11-29T16:03:55.813Z,-10.62
2022-11-29T16:06:41.701Z,-10.65
2022-11-29T16:09:16.052Z,-10.96
2022-11-29T16:11:43.611Z,-10.72
2022-11-29T16:14:13.407Z,-10.90
2022-11-29T16:16:42.859Z,-10.86
2022-11-29T16:19:10.836Z,-10.67
2022-11-29T16:21:37.643Z,-10.89
2022-11-29T16:24:34.238Z,-10.90
2022-11-29T16:27:01.996Z,-10.77
2022-11-29T16:29:37.242Z,-11.01
2022-11-29T16:32:27.778Z,-11.04
2022-11-29T16:34:55.777Z,-11.03
2022-11-29T16:37:26.626Z,-11.08
2022-11-29T16:39:59.669Z,-10.88
2022-11-29T16:42:29.234Z,-11.03
2022-11-29T16:45:01.696Z,-11.07
2022-11-29T16:47:46.582Z,-10.99
2022-11-29T16:50:21.973Z,-11.14
2022-11-29T16:52:53.458Z,-10.90
2022-11-29T16:55:23.529Z,-10.92
2022-11-29T16:57:50.318Z,-11.16
2022-11-29T17:00:29.147Z,-10.95
2022-11-29T17:02:55.852Z,-10.97
2022-11-29T17:05:22.608Z,-11.07
2022-11-29T17:07:50.707Z,-11.12
2022-11-29T17:10:22.761Z,-11.01
2022-11-29T17:12:50.286Z,-11.13
2022-11-29T17:15:17.514Z,-11.23
2022-11-29T17:17:44.301Z,-11.31
2022-11-29T17:20:12.802Z,-11.31
2022-11-29T17:22:39.711Z,-11.22
2022-11-29T17:25:07.001Z,-11.12
2022-11-29T17:27:34.163Z,-11.14
2022-11-29T17:30:00.937Z,-11.28
2022-11-29T17:32:27.594Z,-11.23
2022-11-29T17:34:54.628Z,-11.22
2022-11-29T17:37:21.438Z,-11.36
2022-11-29T17:39:49.296Z,-11.36
2022-11-29T17:42:16.065Z,-11.65
2022-11-29T17:44:42.808Z,-11.62
2022-11-29T17:47:09.502Z,-11.43
2022-11-29T17:49:36.278Z,-11.39
2022-11-29T17:52:03.367Z,-11.46
2022-11-29T17:54:33.089Z,-11.67
2022-11-29T17:57:01.264Z,-11.56
2022-11-29T17:59:27.984Z,-11.60
2022-11-29T18:01:54.795Z,-11.63
2022-11-29T18:04:22.118Z,-11.56
2022-11-29T18:06:51.733Z,-11.59
2022-11-29T18:09:19.875Z,-11.49
2022-11-29T18:11:49.313Z,-11.54
2022-11-29T18:14:20.495Z,-11.51
2022-11-29T18:16:47.427Z,-11.63
2022-11-29T18:19:18.312Z,-11.65
2022-11-29T18:21:45.586Z,-11.78
2022-11-29T18:24:12.508Z,-11.72
2022-11-29T18:26:40.264Z,-11.73
2022-11-29T18:29:07.761Z,-11.69
2022-11-29T18:31:37.088Z,-11.72
2022-11-29T18:34:11.997Z,-11.60
2022-11-29T18:36:44.366Z,-11.79
2022-11-29T18:39:16.467Z,-11.88
2022-11-29T18:41:46.129Z,-11.86
2022-11-29T18:44:15.006Z,-11.58
2022-11-29T18:46:43.194Z,-11.96
2022-11-29T18:49:12.747Z,-11.82
2022-11-29T18:51:41.451Z,-11.73
2022-11-29T18:54:08.979Z,-11.99
2022-11-29T18:56:37.003Z,-11.94
2022-11-29T18:59:12.378Z,-11.95
2022-11-29T19:01:42.848Z,-11.60
2022-11-29T19:04:15.782Z,-11.91
2022-11-29T19:06:43.081Z,-11.87
2022-11-29T19:09:15.546Z,-11.91
2022-11-29T19:11:42.704Z,-11.70
2022-11-29T19:14:14.193Z,-12.03
2022-11-29T19:16:44.679Z,-11.89
2022-11-29T19:19:11.875Z,-11.89
2022-11-29T19:21:40.078Z,-11.72
2022-11-29T19:24:13.882Z,-11.68
2022-11-29T19:26:44.476Z,-11.77
2022-11-29T19:29:12.472Z,-11.79
2022-11-29T19:31:39.954Z,-11.97
2022-11-29T19:34:07.035Z,-11.80
2022-11-29T19:36:34.398Z,-12.01
2022-11-29T19:39:02.316Z,-12.10
2022-11-29T19:41:32.039Z,-11.96
2022-11-29T19:44:01.345Z,-11.91
2022-11-29T19:46:30.761Z,-12.15
2022-11-29T19:48:58.967Z,-12.02
2022-11-29T19:51:27.767Z,-12.18
2022-11-29T19:53:55.347Z,-12.16
2022-11-29T19:56:22.625Z,-12.18
2022-11-29T19:58:49.712Z,-12.22
2022-11-29T20:01:23.075Z,-12.16
2022-11-29T20:03:50.241Z,-12.20
2022-11-29T20:06:18.477Z,-12.17
2022-11-29T20:08:45.817Z,-11.78
2022-11-29T20:11:13.609Z,-12.27
2022-11-29T20:13:42.010Z,-12.06
2022-11-29T20:16:14.681Z,-12.22
2022-11-29T20:18:50.107Z,-12.25
2022-11-29T20:21:28.708Z,-12.09
2022-11-29T20:24:00.229Z,-12.11
2022-11-29T20:26:28.497Z,-12.36
2022-11-29T20:28:55.514Z,-12.03
2022-11-29T20:31:23.441Z,-12.12
2022-11-29T20:33:53.186Z,-12.20
2022-11-29T20:36:58.368Z,-12.19
2022-11-29T20:39:35.487Z,-12.25
2022-11-29T20:42:41.480Z,-12.31
2022-11-29T20:45:09.741Z,-12.29
2022-11-29T20:47:45.367Z,-12.72
2022-11-29T20:50:24.207Z,-12.58
2022-11-29T20:52:56.738Z,-12.35
2022-11-29T20:55:23.671Z,-12.15
2022-11-29T20:57:50.519Z,-12.53
2022-11-29T21:00:18.378Z,-12.50
2022-11-29T21:02:45.127Z,-12.39
2022-11-29T21:05:11.878Z,-12.38
2022-11-29T21:07:38.652Z,-12.41
2022-11-29T21:10:06.123Z,-12.18
2022-11-29T21:12:33.171Z,-12.28
2022-11-29T21:15:00.117Z,-12.35
2022-11-29T21:17:33.169Z,-12.48
2022-11-29T21:20:00.911Z,-12.63
2022-11-29T21:22:38.546Z,-12.77
2022-11-29T21:25:31.196Z,-12.79
2022-11-29T21:27:58.623Z,-12.74
2022-11-29T21:30:25.463Z,-12.63
2022-11-29T21:32:52.609Z,-12.51
2022-11-29T21:35:19.608Z,-12.47
2022-11-29T21:37:46.513Z,-12.53
2022-11-29T21:40:14.283Z,-12.70
2022-11-29T21:42:41.192Z,-12.61
2022-11-29T21:45:13.427Z,-12.72
2022-11-29T21:47:42.817Z,-12.58
2022-11-29T21:50:10.111Z,-12.71
2022-11-29T21:52:36.753Z,-12.75
2022-11-29T21:55:03.941Z,-12.67
2022-11-29T21:57:30.666Z,-12.61
2022-11-29T21:59:57.312Z,-12.64
2022-11-29T22:02:24.131Z,-12.59
2022-11-29T22:04:50.898Z,-12.47
2022-11-29T22:07:17.581Z,-12.59
2022-11-29T22:09:44.260Z,-12.61
2022-11-29T22:12:32.356Z,-12.43
2022-11-29T22:14:57.683Z,-12.54
2022-11-29T22:17:24.387Z,-12.51
2022-11-29T22:19:51.053Z,-12.67
2022-11-29T22:22:17.819Z,-12.41
2022-11-29T22:24:44.607Z,-12.50
2022-11-29T22:27:11.485Z,-12.78
2022-11-29T22:29:38.175Z,-12.86
2022-11-29T22:32:05.292Z,-12.78
2022-11-29T22:34:32.106Z,-12.77
2022-11-29T22:36:58.727Z,-12.94
2022-11-29T22:39:25.772Z,-12.75
2022-11-29T22:41:54.759Z,-12.55
2022-11-29T22:44:22.341Z,-12.60
2022-11-29T22:46:49.029Z,-12.67
2022-11-29T22:49:15.784Z,-12.67
2022-11-29T22:51:42.825Z,-12.78
2022-11-29T22:54:11.715Z,-12.85
2022-11-29T22:56:40.451Z,-12.74
2022-11-29T22:59:07.869Z,-12.80
2022-11-29T23:01:36.385Z,-12.77
2022-11-29T23:04:06.217Z,-12.90
2022-11-29T23:06:35.352Z,-12.88
2022-11-29T23:09:21.390Z,-12.96
2022-11-29T23:11:56.286Z,-12.74
2022-11-29T23:14:23.947Z,-12.73
2022-11-29T23:16:51.311Z,-12.74
2022-11-29T23:19:18.627Z,-12.78
2022-11-29T23:21:46.374Z,-12.85
2022-11-29T23:24:14.984Z,-12.80
2022-11-29T23:26:44.223Z,-12.75
2022-11-29T23:29:14.380Z,-12.90
2022-11-29T23:31:41.695Z,-12.88
2022-11-29T23:34:09.161Z,-12.90
2022-11-29T23:36:36.348Z,-12.83
2022-11-29T23:39:03.198Z,-12.73
2022-11-29T23:41:29.869Z,-12.85
2022-11-29T23:43:56.580Z,-12.91
2022-11-29T23:46:24.546Z,-12.98
2022-11-29T23:48:51.749Z,-12.93
2022-11-29T23:51:19.852Z,-13.09
2022-11-29T23:53:51.489Z,-12.96
2022-11-29T23:56:18.932Z,-13.05
2022-11-29T23:58:46.166Z,-13.02
